This is the latest recevied weather packets stored in our database for station/object KA7KDX-4. If no packets are shown the sender has not sent any weather packets the latest 1 day(s).
| Time | Temp. | Humidity | Pressure | Rain* | Wind** | Luminosity | Snow |
|---|---|---|---|---|---|---|---|
| 1778050506 | 9.44° C | 82% | 1011 hPa | 0.76 mm | - | - | - |
| 1778050206 | 10° C | 81% | 1011.1 hPa | 1.52 mm | - | - | - |
| 1778049906 | 10° C | 80% | 1011 hPa | 3.05 mm | - | - | - |
| 1778049007 | 10.56° C | 75% | 1011.1 hPa | 5.84 mm | - | - | - |
| 1778047806 | 10° C | 80% | 1011.3 hPa | 5.59 mm | - | - | - |
| 1778047506 | 10° C | 77% | 1011.1 hPa | 4.83 mm | - | - | - |
| 1778047206 | 10.56° C | 75% | 1010.8 hPa | 3.3 mm | - | - | - |
| 1778046606 | 11.11° C | 71% | 1009.9 hPa | 1.52 mm | - | - | - |
| 1778045105 | 13.89° C | 54% | 1007.5 hPa | 0 mm | - | - | - |
| 1778044806 | 13.89° C | 51% | 1007.4 hPa | 0 mm | - | - | - |
| 1778044506 | 13.89° C | 51% | 1007.2 hPa | 0 mm | - | - | - |
| 1778044206 | 13.89° C | 51% | 1007.1 hPa | 0 mm | - | - | - |
| 1778043305 | 13.89° C | 50% | 1006.8 hPa | 0 mm | - | - | - |
| 1778042106 | 13.33° C | 52% | 1006.8 hPa | 0 mm | - | - | - |
| 1778041806 | 13.33° C | 52% | 1006.9 hPa | 0 mm | - | - | - |
| 1778041506 | 13.33° C | 52% | 1007 hPa | 0 mm | - | - | - |
| 1778039706 | 12.78° C | 53% | 1006.9 hPa | 0 mm | - | - | - |
| 1778039406 | 12.78° C | 53% | 1006.7 hPa | 0 mm | - | - | - |
| 1778039106 | 12.78° C | 52% | 1006.5 hPa | 0 mm | - | - | - |
| 1778038806 | 13.33° C | 52% | 1006.3 hPa | 0 mm | - | - | - |
| 1778037006 | 13.33° C | 51% | 1006.2 hPa | 0 mm | - | - | - |
| 1778036706 | 13.33° C | 51% | 1006.1 hPa | 0 mm | - | - | - |
| 1778036406 | 13.89° C | 50% | 1005.9 hPa | 0 mm | - | - | - |
| 1778036106 | 13.89° C | 50% | 1005.8 hPa | 0 mm | - | - | - |
| 1778035806 | 13.89° C | 52% | 1005.8 hPa | 0 mm | - | - | - |
* Rain latest hour (hover to see other rain measurements)
** Current wind speed in m/s (hover to see current wind gust speed)